Hooper Bay, AK

12:54 PM AKDT on July 26, 2014 (GMT -0800)
Chevak (PAVA) Elev 75 ft | 61.54 °N, 165.60 °W | Change Station

Current weather conditions updated 57 minutes ago

Overcast
Overcast
52 °F
Feels Like 52 °F
N
7
Wind Variable Wind from ESE

Today is forecast to be nearly the same temperature as yesterday.

Today
High -- | Low -- °F
--% Chance of Precip.
Yesterday
High -- | Low -- °F
Precip. -- in
6:17 AM 11:58 PM
Waning Crescent, 0% visible
Pressure 30.12 in
Visibility 10.0 miles
Clouds Mostly Cloudy 2900 ft
Overcast 4000 ft
Dew Point 44 °F
Humidity 74%
Rainfall 0.00 in
Snow Depth Not available.
UV 1 out of 12
Pollen Not available.
Air Quality Not available.
Flu Activity Not available.
METAR PAVA 261957Z AUTO 11006KT 10SM BKN029 OVC040 11/07 A3011 RMK AO2 SLP199 T01110067

More Conditions Fewer Conditions

Pressure 30.12 in
Visibility 10.0 miles
Clouds Mostly Cloudy 2900 ft
Overcast 4000 ft
Dew Point 44 °F
Humidity 74%
Rainfall 0.00 in
Snow Depth Not available.
UV 1 out of 12
Pollen Not available.
Air Quality Not available.
Flu Activity Not available.
METAR PAVA 261957Z AUTO 11006KT 10SM BKN029 OVC040 11/07 A3011 RMK AO2 SLP199 T01110067

More Conditions Fewer Conditions

10-Day Weather Forecast

Almanac

Astronomy

Jul. 26, 2014 Rise Set
Actual Time 6:17 AM AKDT 11:58 PM AKDT
Civil Twilight 5:01 AM AKDT 1:12 AM AKDT
Nautical Twilight Sun does not rise Sun does not rise
Astronomical Twilight Sun does not rise Sun does not rise
Moon 6:49 AM AKDT 11:04 PM AKDT
Length of Visible Light 20h 10m
Length of Day
17h 41m
Tomorrow will be 5m 7s shorter.
Waning Crescent, 0% of the Moon is Illuminated
Today
Waning Crescent
Jul 26
New
Aug 3
First Quarter
Aug 10
Full
Aug 17
Last Quarter

Today's Extremes

State Highs State Lows

Community

WunderPhotos

Upload Photos

1,737,699 photos uploaded!

Nearby

Snow Depth

Station Depth Elevation
Rocky Point 1 in 500 ft
Mcneil Canyon 1 in 1320 ft
Port Graham 0 in 300 ft
Susitna Valley High 19 in 375 ft
Point Mackenzie 1 in 200 ft

Earthquake Activity

City Distance Mag. Time & Date
No recent earthquake activity has been reported nearby.
Minimum magnitude displayed is 2.5.

Coastal Water Temperatures

Place Temperature
No Stations Reporting

Nearby Weather Stations

There are no personal weather stations in this area.